Time;durP1;ratioP1;P1;durP2;ratioP2;P2;SDS_P1;SDS_P2;PMS_P1;PMS_P2;Temp;Humidity;BMP_temperature;BMP_pressure;BME280_temperature;BME280_humidity;BME280_pressure;Samples;Min_cycle;Max_cycle;Signal;HPM_P1;HPM_P2
2023/10/02 00:01:57;;;;;;;10.53;6.97;;;18.30;99.90;;;;;;5096965;28;20429;-64
2023/10/02 00:04:26;;;;;;;10.60;7.40;;;18.30;99.90;;;;;;5103222;28;20490;-64
2023/10/02 00:07:14;;;;;;;11.77;7.63;;;18.30;99.90;;;;;;5104612;28;20533;-64
2023/10/02 00:10:18;;;;;;;12.50;7.80;;;18.30;99.90;;;;;;5101077;28;21071;-64
2023/10/02 00:13:22;;;;;;;11.60;8.00;;;18.20;99.90;;;;;;5102035;28;20945;-64
2023/10/02 00:15:56;;;;;;;11.70;7.43;;;18.20;99.90;;;;;;5000497;28;20460;-64
2023/10/02 00:18:37;;;;;;;10.67;7.37;;;18.20;99.90;;;;;;5001708;28;20461;-64
2023/10/02 00:21:17;;;;;;;11.60;7.13;;;18.20;99.90;;;;;;5000745;28;20509;-64
2023/10/02 00:23:59;;;;;;;12.20;7.23;;;18.20;99.90;;;;;;5000108;28;20449;-64
2023/10/02 00:26:25;;;;;;;11.70;6.87;;;18.30;99.90;;;;;;4996650;28;20441;-64
2023/10/02 00:29:11;;;;;;;11.33;7.07;;;18.20;99.90;;;;;;5103480;28;20551;-64
2023/10/02 00:31:38;;;;;;;12.50;8.40;;;18.10;99.90;;;;;;5102597;28;20434;-64
2023/10/02 00:34:30;;;;;;;11.63;8.43;;;18.10;99.90;;;;;;5102072;28;20447;-64
2023/10/02 00:40:30;;;;;;;13.27;8.73;;;18.00;99.90;;;;;;5029857;28;20794;-64
2023/10/02 00:42:56;;;;;;;11.83;8.33;;;17.90;99.90;;;;;;5095130;28;20486;-64
2023/10/02 00:45:43;;;;;;;13.50;7.63;;;18.00;99.90;;;;;;5100710;28;20426;-63
2023/10/02 00:51:11;;;;;;;14.60;8.10;;;18.00;99.90;;;;;;5101021;28;20618;-64
2023/10/02 00:53:48;;;;;;;10.80;7.67;;;18.00;99.90;;;;;;5103864;28;20453;-63
2023/10/02 00:56:24;;;;;;;12.20;8.30;;;18.00;99.90;;;;;;5102203;28;20510;-64
2023/10/02 00:59:00;;;;;;;11.30;7.23;;;18.00;99.90;;;;;;5101242;28;20418;-64
2023/10/02 01:01:32;;;;;;;11.97;7.27;;;18.10;99.90;;;;;;5101872;28;20456;-64
2023/10/02 01:09:41;;;;;;;13.93;8.67;;;18.00;99.90;;;;;;5101393;28;20464;-64
2023/10/02 01:12:10;;;;;;;13.77;8.03;;;18.00;99.90;;;;;;5101525;28;21262;-63
2023/10/02 01:15:07;;;;;;;10.83;7.80;;;18.00;99.90;;;;;;5101586;28;20477;-64
2023/10/02 01:17:51;;;;;;;11.07;8.13;;;17.90;99.90;;;;;;5067045;28;20440;-64
2023/10/02 01:20:33;;;;;;;12.80;8.23;;;17.90;99.90;;;;;;5094583;28;20460;-63
2023/10/02 01:23:18;;;;;;;11.50;8.20;;;17.90;99.90;;;;;;5102781;28;20920;-63
2023/10/02 01:25:57;;;;;;;14.03;8.10;;;17.90;99.90;;;;;;5085673;28;20520;-64
2023/10/02 01:29:04;;;;;;;11.20;7.13;;;17.90;99.90;;;;;;5102076;28;20426;-64
2023/10/02 01:34:39;;;;;;;13.00;7.90;;;17.90;99.90;;;;;;4999860;28;20493;-64
2023/10/02 01:42:52;;;;;;;11.37;8.17;;;17.70;99.90;;;;;;4999051;28;20762;-63
2023/10/02 01:45:18;;;;;;;11.00;7.20;;;17.70;99.90;;;;;;5054128;28;20437;-64
2023/10/02 01:47:49;;;;;;;11.63;8.17;;;17.70;99.90;;;;;;5108594;28;20432;-64
2023/10/02 01:50:43;;;;;;;11.00;7.77;;;17.60;99.90;;;;;;5107627;28;20292;-64
2023/10/02 01:53:32;;;;;;;11.40;7.73;;;17.60;99.90;;;;;;5104008;28;20459;-64
2023/10/02 01:56:10;;;;;;;11.60;7.40;;;17.60;99.90;;;;;;5005835;28;20444;-64
2023/10/02 01:58:48;;;;;;;11.67;7.73;;;17.50;99.90;;;;;;5006721;28;20437;-64
2023/10/02 02:02:12;;;;;;;12.17;7.30;;;17.50;99.90;;;;;;5080801;28;20876;-64
2023/10/02 02:04:43;;;;;;;12.07;7.20;;;17.40;99.90;;;;;;4987035;28;21334;-64
2023/10/02 02:07:39;;;;;;;12.03;7.90;;;17.40;99.90;;;;;;5042065;28;20495;-64
2023/10/02 02:10:48;;;;;;;14.03;8.63;;;17.40;99.90;;;;;;5033915;28;20480;-64
2023/10/02 02:13:14;;;;;;;12.03;7.50;;;17.40;99.90;;;;;;5046304;28;20487;-64
2023/10/02 02:16:31;;;;;;;11.00;7.03;;;17.40;99.90;;;;;;5040294;28;20430;-64
2023/10/02 02:19:14;;;;;;;13.43;8.10;;;17.40;99.90;;;;;;5078904;28;20437;-64
2023/10/02 02:22:19;;;;;;;13.13;7.83;;;17.30;99.90;;;;;;5107576;28;20424;-63
2023/10/02 02:25:03;;;;;;;11.47;8.00;;;17.40;99.90;;;;;;5009387;28;20491;-64
2023/10/02 02:27:46;;;;;;;11.53;7.57;;;17.30;99.90;;;;;;5107563;28;20425;-64
2023/10/02 02:30:19;;;;;;;9.70;7.10;;;17.30;99.90;;;;;;5109419;28;20469;-64
2023/10/02 02:33:01;;;;;;;10.93;7.37;;;17.20;99.90;;;;;;5107349;28;20523;-63
2023/10/02 02:35:39;;;;;;;12.23;7.53;;;17.20;99.90;;;;;;5109843;28;21217;-63
2023/10/02 02:38:16;;;;;;;11.70;6.80;;;17.20;99.90;;;;;;5109359;28;20424;-63
2023/10/02 02:41:05;;;;;;;10.93;7.13;;;17.20;99.90;;;;;;5107012;28;20433;-63
2023/10/02 02:43:30;;;;;;;11.23;7.10;;;17.20;99.90;;;;;;5107580;28;20528;-64
2023/10/02 02:46:04;;;;;;;11.70;7.63;;;17.10;99.90;;;;;;5090364;28;20524;-63
2023/10/02 02:49:25;;;;;;;13.27;7.23;;;17.10;99.90;;;;;;5089147;28;20189;-64
2023/10/02 02:52:26;;;;;;;10.47;7.47;;;17.10;99.90;;;;;;5003483;28;20451;-63
2023/10/02 02:55:12;;;;;;;12.70;8.40;;;17.00;99.90;;;;;;4998550;28;20442;-64
2023/10/02 02:58:02;;;;;;;10.53;7.17;;;17.00;99.90;;;;;;5001404;28;20440;-64
2023/10/02 03:00:35;;;;;;;11.10;6.87;;;16.80;99.90;;;;;;5002512;28;20485;-63
2023/10/02 03:03:31;;;;;;;12.40;7.57;;;16.90;99.90;;;;;;5002857;28;20438;-64
2023/10/02 03:05:59;;;;;;;15.53;7.10;;;16.80;99.90;;;;;;5027658;28;20532;-64
2023/10/02 03:08:41;;;;;;;10.00;6.73;;;16.80;99.90;;;;;;5104078;28;20509;-64
2023/10/02 03:11:33;;;;;;;12.10;8.10;;;16.80;99.90;;;;;;5099046;28;20477;-64
2023/10/02 03:14:14;;;;;;;12.50;7.90;;;16.80;99.90;;;;;;5058173;28;21362;-64
2023/10/02 03:16:51;;;;;;;14.10;8.07;;;16.90;99.90;;;;;;5105045;28;20434;-64
2023/10/02 03:19:21;;;;;;;10.40;7.17;;;17.00;99.90;;;;;;5100560;28;20441;-64
2023/10/02 03:22:01;;;;;;;10.23;7.50;;;17.00;99.90;;;;;;5094943;28;20425;-63
2023/10/02 03:24:39;;;;;;;11.70;7.53;;;16.90;99.90;;;;;;5098262;28;20433;-64
2023/10/02 03:27:09;;;;;;;12.37;8.07;;;16.90;99.90;;;;;;5098891;28;20520;-64
2023/10/02 03:29:38;;;;;;;14.70;8.70;;;17.00;99.90;;;;;;5098068;28;20484;-63
2023/10/02 03:32:11;;;;;;;12.27;8.10;;;17.10;99.90;;;;;;5103619;28;20920;-63
2023/10/02 03:34:38;;;;;;;13.40;7.50;;;17.00;99.90;;;;;;5103046;28;20430;-64
2023/10/02 03:37:21;;;;;;;9.30;6.23;;;16.90;99.90;;;;;;5100588;28;20430;-64
2023/10/02 03:39:59;;;;;;;12.07;8.00;;;16.90;99.90;;;;;;5100832;28;20824;-64
2023/10/02 03:42:42;;;;;;;13.43;7.80;;;16.80;99.90;;;;;;5101424;28;20436;-64
2023/10/02 03:45:38;;;;;;;10.80;7.30;;;16.60;99.90;;;;;;5101014;28;20429;-63
2023/10/02 03:51:40;;;;;;;11.00;7.20;;;16.60;99.90;;;;;;5002436;28;20446;-62
2023/10/02 03:54:29;;;;;;;15.40;9.10;;;16.80;99.90;;;;;;5002228;28;21027;-64
2023/10/02 03:57:01;;;;;;;12.33;8.10;;;16.80;99.90;;;;;;4995259;28;20442;-64
2023/10/02 03:59:32;;;;;;;11.23;6.87;;;16.90;99.90;;;;;;5001723;28;20454;-64
2023/10/02 04:11:09;;;;;;;11.80;7.87;;;16.90;99.90;;;;;;5070723;28;20984;-64
2023/10/02 04:13:39;;;;;;;12.40;7.80;;;16.90;99.90;;;;;;5084161;28;20426;-64
2023/10/02 04:16:46;;;;;;;11.67;8.53;;;16.90;99.90;;;;;;5084278;28;21234;-64
2023/10/02 04:19:51;;;;;;;10.90;7.00;;;16.70;99.90;;;;;;5080327;28;20422;-64
2023/10/02 04:22:25;;;;;;;12.00;7.33;;;16.70;99.90;;;;;;5001208;28;20442;-64
2023/10/02 04:25:07;;;;;;;14.30;8.20;;;16.70;99.90;;;;;;5000715;28;20446;-64
2023/10/02 04:32:51;;;;;;;10.80;7.60;;;16.90;99.90;;;;;;5073398;28;21005;-64
2023/10/02 04:38:49;;;;;;;12.40;8.30;;;16.80;99.90;;;;;;5076732;28;20434;-64
2023/10/02 04:42:09;;;;;;;11.63;7.57;;;16.80;99.90;;;;;;5075902;28;20481;-64
2023/10/02 04:44:44;;;;;;;14.27;7.77;;;16.80;99.90;;;;;;5064307;28;20527;-64
2023/10/02 04:47:17;;;;;;;11.40;7.57;;;16.90;99.90;;;;;;5083366;28;20473;-64
2023/10/02 04:56:07;;;;;;;12.80;7.30;;;16.90;99.90;;;;;;4985744;28;20572;-65
2023/10/02 04:58:49;;;;;;;13.07;8.23;;;16.80;99.90;;;;;;5103099;28;20485;-64
2023/10/02 05:07:36;;;;;;;13.27;8.50;;;16.70;99.90;;;;;;5098663;28;20434;-64
2023/10/02 05:10:11;;;;;;;13.43;8.07;;;16.70;99.90;;;;;;5103974;28;20647;-65
2023/10/02 05:12:58;;;;;;;13.57;8.37;;;16.70;99.90;;;;;;5103474;28;20425;-64
2023/10/02 05:16:20;;;;;;;13.80;8.33;;;16.70;99.90;;;;;;5104388;28;20961;-64
2023/10/02 05:19:01;;;;;;;11.83;8.10;;;16.80;99.90;;;;;;5095775;28;20442;-64
2023/10/02 05:24:19;;;;;;;11.37;7.43;;;16.80;99.90;;;;;;5099641;28;20504;-65
2023/10/02 05:26:48;;;;;;;11.90;7.90;;;16.80;99.90;;;;;;5095115;28;20430;-64
2023/10/02 05:38:02;;;;;;;12.57;8.10;;;16.70;99.90;;;;;;5097634;28;20433;-64
2023/10/02 05:40:38;;;;;;;12.20;8.20;;;16.70;99.90;;;;;;5097531;28;20437;-64
2023/10/02 05:56:20;;;;;;;11.33;7.60;;;16.70;99.90;;;;;;5039933;28;20474;-64
2023/10/02 05:58:49;;;;;;;13.87;8.30;;;16.70;99.90;;;;;;5036015;28;20490;-64
2023/10/02 06:01:34;;;;;;;12.93;8.30;;;16.70;99.90;;;;;;5039624;28;20518;-62
2023/10/02 06:04:33;;;;;;;11.20;7.37;;;16.70;99.90;;;;;;5039780;28;20440;-63
2023/10/02 06:10:26;;;;;;;12.93;7.90;;;16.70;99.90;;;;;;5039194;28;21028;-63
2023/10/02 06:13:08;;;;;;;13.23;8.67;;;16.70;99.90;;;;;;5039185;28;20433;-63
2023/10/02 06:16:26;;;;;;;11.93;7.63;;;16.80;99.90;;;;;;5038500;28;20448;-63
2023/10/02 06:26:46;;;;;;;11.63;8.30;;;16.80;99.90;;;;;;4956758;28;20461;-63
2023/10/02 06:29:44;;;;;;;16.30;9.00;;;16.80;99.90;;;;;;4968029;28;20473;-63
2023/10/02 06:32:22;;;;;;;14.60;8.17;;;16.80;99.90;;;;;;5041077;28;20919;-63
2023/10/02 06:34:51;;;;;;;12.43;7.80;;;16.80;99.90;;;;;;5079301;28;20497;-63
2023/10/02 06:37:45;;;;;;;11.97;7.27;;;16.80;99.90;;;;;;5073977;28;21202;-63
2023/10/02 06:40:24;;;;;;;15.43;9.00;;;16.80;99.90;;;;;;5095445;28;20772;-63
2023/10/02 06:43:35;;;;;;;13.37;8.10;;;16.80;99.90;;;;;;5091055;28;20434;-63
2023/10/02 06:49:15;;;;;;;16.77;8.50;;;17.00;99.90;;;;;;5022732;28;20778;-63
2023/10/02 06:55:03;;;;;;;11.93;8.30;;;17.20;99.90;;;;;;5022749;28;20449;-63
2023/10/02 06:57:36;;;;;;;14.23;9.00;;;17.20;99.90;;;;;;5022123;28;20523;-63
2023/10/02 07:00:25;;;;;;;14.73;8.23;;;17.30;99.90;;;;;;5017178;28;20492;-63
2023/10/02 07:03:12;;;;;;;14.43;8.70;;;17.30;99.90;;;;;;5015061;28;20440;-63
2023/10/02 07:05:39;;;;;;;13.83;8.40;;;17.40;99.90;;;;;;5021614;28;20444;-64
2023/10/02 07:08:36;;;;;;;15.87;8.27;;;17.40;99.90;;;;;;5022637;28;20441;-63
2023/10/02 07:11:39;;;;;;;18.33;9.30;;;17.50;99.90;;;;;;5005389;28;20527;-63
2023/10/02 07:17:50;;;;;;;13.53;9.20;;;17.80;99.90;;;;;;4981789;28;20975;-63
2023/10/02 07:20:53;;;;;;;14.10;8.77;;;17.90;99.90;;;;;;5039686;28;20436;-63
2023/10/02 07:23:30;;;;;;;12.73;8.53;;;18.10;99.90;;;;;;5041632;28;20584;-63
2023/10/02 07:29:09;;;;;;;15.47;9.17;;;18.40;99.90;;;;;;5047765;28;20423;-63
2023/10/02 07:32:13;;;;;;;14.50;8.40;;;18.50;99.90;;;;;;5055691;28;20452;-63
2023/10/02 07:38:02;;;;;;;12.60;9.10;;;18.90;99.90;;;;;;4986294;28;20529;-64
2023/10/02 07:40:57;;;;;;;13.80;7.90;;;19.10;99.90;;;;;;5082495;28;20437;-64
2023/10/02 07:43:27;;;;;;;17.87;8.90;;;19.20;99.90;;;;;;5067799;28;20439;-63
2023/10/02 07:51:39;;;;;;;16.33;9.47;;;19.80;99.90;;;;;;5094920;28;20421;-64
2023/10/02 07:54:08;;;;;;;14.23;8.60;;;19.90;99.90;;;;;;5089430;28;20443;-64
2023/10/02 07:56:49;;;;;;;12.50;8.17;;;20.10;99.90;;;;;;5086202;28;20434;-63
2023/10/02 07:59:18;;;;;;;13.60;8.90;;;20.20;99.90;;;;;;5086359;28;20431;-63
2023/10/02 08:02:33;;;;;;;13.10;9.00;;;20.40;99.90;;;;;;5083642;28;20426;-63
2023/10/02 08:05:43;;;;;;;;;;;;;;;;;;;;;
2023/10/02 08:08:36;;;;;;;15.17;9.27;;;20.60;99.90;;;;;;5084295;28;21064;-63
2023/10/02 08:11:10;;;;;;;15.47;9.30;;;20.70;99.90;;;;;;5088240;28;20476;-64
2023/10/02 08:13:52;;;;;;;15.00;8.67;;;20.70;99.90;;;;;;5085543;28;20430;-63
2023/10/02 08:16:33;;;;;;;15.53;8.93;;;20.80;99.90;;;;;;5065482;28;20426;-63
2023/10/02 08:19:01;;;;;;;13.50;8.33;;;20.90;99.90;;;;;;5078330;28;21007;-64
2023/10/02 08:24:23;;;;;;;16.33;9.37;;;21.00;99.90;;;;;;5081046;28;20453;-63
2023/10/02 08:27:04;;;;;;;14.37;9.60;;;21.10;99.90;;;;;;5090919;28;20425;-64
2023/10/02 08:29:30;;;;;;;14.33;9.47;;;21.20;99.90;;;;;;5083069;28;20450;-65
2023/10/02 08:32:31;;;;;;;13.57;9.80;;;21.20;99.90;;;;;;5077857;28;21224;-63
2023/10/02 08:36:12;;;;;;;11.17;8.37;;;21.30;99.90;;;;;;5044154;28;20323;-63
2023/10/02 08:38:59;;;;;;;14.43;9.17;;;21.40;99.90;;;;;;4999561;28;20906;-63
2023/10/02 08:41:50;;;;;;;15.03;9.30;;;21.40;99.90;;;;;;5000201;28;21272;-63
2023/10/02 08:44:43;;;;;;;14.10;9.17;;;21.50;99.90;;;;;;5000778;28;20484;-63
2023/10/02 08:47:35;;;;;;;17.90;10.03;;;21.60;99.90;;;;;;5000944;28;20525;-63
2023/10/02 08:50:15;;;;;;;13.93;8.70;;;21.70;99.90;;;;;;5004896;28;21054;-63
2023/10/02 08:52:50;;;;;;;14.37;8.60;;;21.70;99.90;;;;;;4999498;28;20437;-63
2023/10/02 08:55:54;;;;;;;13.90;8.70;;;21.80;99.90;;;;;;5023854;28;20590;-63
2023/10/02 08:58:41;;;;;;;12.73;8.77;;;21.90;99.90;;;;;;5099483;28;20484;-63
2023/10/02 09:01:37;;;;;;;13.30;8.53;;;22.00;99.90;;;;;;5096204;28;20429;-64
2023/10/02 09:04:51;;;;;;;14.03;9.80;;;22.10;99.90;;;;;;5096083;28;20496;-63
2023/10/02 09:08:25;;;;;;;15.30;8.83;;;22.30;99.90;;;;;;5016325;28;20541;-63
2023/10/02 09:11:16;;;;;;;16.10;9.97;;;22.40;99.90;;;;;;5030619;28;21204;-63
2023/10/02 09:13:42;;;;;;;16.20;10.13;;;22.50;99.90;;;;;;5035665;28;20429;-63
2023/10/02 09:16:15;;;;;;;13.77;9.10;;;22.60;99.90;;;;;;5028322;28;20433;-63
2023/10/02 09:24:23;;;;;;;19.13;10.30;;;22.80;99.90;;;;;;5101380;28;20869;-63
2023/10/02 09:27:20;;;;;;;14.33;10.27;;;22.90;99.90;;;;;;5099446;28;20437;-63
2023/10/02 09:29:46;;;;;;;15.93;10.43;;;23.00;99.90;;;;;;5098475;28;20482;-63
2023/10/02 09:33:07;;;;;;;15.00;9.40;;;23.00;99.90;;;;;;5100448;28;20425;-64
2023/10/02 09:42:07;;;;;;;16.90;9.77;;;23.40;99.90;;;;;;5019766;28;20468;-64
2023/10/02 09:45:08;;;;;;;19.50;10.97;;;23.60;99.90;;;;;;5079724;28;21290;-63
2023/10/02 09:47:56;;;;;;;16.50;9.97;;;23.80;99.90;;;;;;4999114;28;20841;-64
2023/10/02 09:50:54;;;;;;;15.30;10.17;;;23.90;99.90;;;;;;4998903;28;20485;-63
2023/10/02 09:54:16;;;;;;;15.50;9.47;;;24.10;99.90;;;;;;4931823;28;20442;-63
2023/10/02 09:57:12;;;;;;;12.70;8.93;;;24.20;99.90;;;;;;4999912;28;20499;-64
2023/10/02 09:59:49;;;;;;;15.57;10.20;;;24.40;99.90;;;;;;5101342;28;20630;-63
2023/10/02 10:05:46;;;;;;;14.90;9.90;;;24.60;99.90;;;;;;5053804;28;20439;-63
2023/10/02 10:11:45;;;;;;;17.23;11.13;;;24.70;99.90;;;;;;5102453;28;20449;-63
2023/10/02 10:14:54;;;;;;;15.23;10.70;;;24.60;99.90;;;;;;5104685;28;20873;-63
2023/10/02 10:17:21;;;;;;;14.60;10.03;;;24.70;99.90;;;;;;5100403;28;21308;-63
2023/10/02 10:20:12;;;;;;;17.73;9.77;;;24.70;99.90;;;;;;5104283;28;20504;-64
2023/10/02 10:22:50;;;;;;;14.30;9.70;;;24.80;99.90;;;;;;5102270;28;20452;-64
2023/10/02 10:25:55;;;;;;;15.17;9.93;;;24.80;99.90;;;;;;5098797;28;20544;-63
2023/10/02 10:29:18;;;;;;;16.10;9.40;;;24.80;99.90;;;;;;5005724;28;21157;-63
2023/10/02 10:31:55;;;;;;;17.57;10.50;;;24.80;99.90;;;;;;5058932;28;20428;-64
2023/10/02 10:35:17;;;;;;;14.07;8.87;;;24.70;99.90;;;;;;5061974;28;20442;-64
2023/10/02 10:37:56;;;;;;;17.27;11.23;;;24.70;99.90;;;;;;5100357;28;21132;-63
2023/10/02 10:44:31;;;;;;;16.73;10.87;;;24.80;99.90;;;;;;5102231;27;20452;-63
2023/10/02 10:46:57;;;;;;;12.93;9.40;;;24.80;99.90;;;;;;5098631;27;20444;-63
2023/10/02 10:49:27;;;;;;;16.50;10.77;;;24.80;99.90;;;;;;5096841;28;20460;-63
2023/10/02 10:51:55;;;;;;;16.33;10.27;;;24.80;99.90;;;;;;5096238;27;20483;-63
2023/10/02 10:54:27;;;;;;;14.27;9.53;;;24.70;99.90;;;;;;5096728;27;20474;-64
2023/10/02 10:57:19;;;;;;;16.20;10.30;;;24.70;99.90;;;;;;5105862;27;20530;-64
2023/10/02 10:59:45;;;;;;;14.07;10.00;;;24.70;99.90;;;;;;5105179;27;20434;-64
2023/10/02 11:02:16;;;;;;;15.70;9.93;;;24.60;99.90;;;;;;5120658;27;20432;-64
2023/10/02 11:04:49;;;;;;;16.37;10.67;;;24.60;99.90;;;;;;5125396;27;21063;-63
2023/10/02 11:07:19;;;;;;;16.90;10.47;;;24.60;99.90;;;;;;5125308;27;20574;-63
2023/10/02 11:12:56;;;;;;;15.20;10.00;;;24.70;99.90;;;;;;5126982;27;20428;-64
2023/10/02 11:15:46;;;;;;;15.53;10.20;;;24.80;99.90;;;;;;5126014;27;20427;-64
2023/10/02 11:18:20;;;;;;;15.67;10.30;;;24.90;99.90;;;;;;5126257;27;20421;-63
2023/10/02 11:20:54;;;;;;;16.00;10.70;;;25.00;99.90;;;;;;5126609;27;21010;-63
2023/10/02 11:23:45;;;;;;;15.80;10.80;;;25.00;99.90;;;;;;5126167;27;20772;-64
2023/10/02 11:26:15;;;;;;;14.37;10.30;;;25.20;99.90;;;;;;5126556;27;20409;-63
2023/10/02 11:28:43;;;;;;;16.10;10.37;;;25.40;99.90;;;;;;5119764;27;20500;-63
2023/10/02 11:31:30;;;;;;;15.43;10.00;;;25.40;99.90;;;;;;5106006;28;20469;-64
2023/10/02 11:34:05;;;;;;;13.93;9.47;;;25.40;99.90;;;;;;5106053;28;20440;-64
2023/10/02 11:36:37;;;;;;;15.30;10.70;;;25.50;99.90;;;;;;5105166;28;20416;-64
2023/10/02 11:39:16;;;;;;;14.93;10.37;;;25.50;99.90;;;;;;5105942;28;20426;-64
2023/10/02 11:41:43;;;;;;;13.40;8.43;;;25.50;99.90;;;;;;5105767;28;20504;-64
2023/10/02 11:44:12;;;;;;;16.57;9.93;;;25.50;99.90;;;;;;5105265;28;20478;-64
2023/10/02 11:46:41;;;;;;;15.53;11.00;;;25.40;99.90;;;;;;5105343;28;20858;-63
2023/10/02 11:49:08;;;;;;;17.57;10.73;;;25.40;99.90;;;;;;5105560;28;20440;-64
2023/10/02 11:51:33;;;;;;;16.77;9.90;;;25.40;99.90;;;;;;5105085;28;20501;-63
2023/10/02 11:54:05;;;;;;;16.10;9.30;;;25.20;99.90;;;;;;5105314;28;20504;-63
2023/10/02 11:56:31;;;;;;;14.80;10.67;;;25.20;99.90;;;;;;5105130;28;20271;-63
2023/10/02 11:58:58;;;;;;;13.30;9.53;;;25.20;99.90;;;;;;5105673;28;20421;-63
2023/10/02 12:01:27;;;;;;;15.27;9.37;;;25.10;99.90;;;;;;5104912;28;20428;-64
2023/10/02 12:03:59;;;;;;;15.37;9.97;;;25.10;99.90;;;;;;5105234;28;20418;-64
2023/10/02 12:06:27;;;;;;;14.17;9.07;;;25.10;99.90;;;;;;5105392;28;20429;-64
2023/10/02 12:08:58;;;;;;;14.33;9.83;;;25.10;99.90;;;;;;5105638;28;20412;-64
2023/10/02 12:11:28;;;;;;;15.30;10.17;;;25.20;99.90;;;;;;5105071;28;20908;-64
2023/10/02 12:13:55;;;;;;;11.53;8.10;;;25.40;99.90;;;;;;5105559;28;20429;-64
2023/10/02 12:16:24;;;;;;;10.60;7.40;;;25.40;99.90;;;;;;5104533;28;20475;-63
2023/10/02 12:18:50;;;;;;;13.50;9.10;;;25.50;99.90;;;;;;5104928;28;21228;-63
2023/10/02 12:21:19;;;;;;;14.17;9.27;;;25.50;99.90;;;;;;5104368;28;20421;-63
2023/10/02 12:23:46;;;;;;;13.00;8.00;;;25.60;99.90;;;;;;5105026;28;20529;-64
2023/10/02 12:26:16;;;;;;;13.20;8.90;;;25.60;99.90;;;;;;5104270;28;21225;-64
2023/10/02 12:28:42;;;;;;;14.50;9.60;;;25.50;99.90;;;;;;5104795;28;20539;-64
2023/10/02 12:31:15;;;;;;;13.43;8.87;;;25.40;99.90;;;;;;5105265;28;20469;-63
2023/10/02 12:33:41;;;;;;;12.13;9.47;;;25.40;99.90;;;;;;5104784;28;20467;-63
2023/10/02 12:36:17;;;;;;;13.27;8.60;;;25.40;99.90;;;;;;5104560;28;20417;-63
2023/10/02 12:38:44;;;;;;;14.90;9.60;;;25.40;99.90;;;;;;5104840;28;20421;-64
2023/10/02 12:41:23;;;;;;;17.80;8.73;;;25.40;99.90;;;;;;5104269;28;20447;-64
2023/10/02 12:43:56;;;;;;;12.20;8.70;;;25.40;99.90;;;;;;5104375;28;20425;-64
2023/10/02 12:46:31;;;;;;;12.67;8.90;;;25.40;99.90;;;;;;5103476;28;20452;-63
2023/10/02 12:48:57;;;;;;;13.10;8.47;;;25.30;99.90;;;;;;5104423;28;21264;-63
2023/10/02 12:51:28;;;;;;;11.53;8.40;;;25.20;99.90;;;;;;5103468;28;20476;-63
2023/10/02 12:53:54;;;;;;;14.17;9.47;;;25.20;99.90;;;;;;5104496;28;20425;-64
2023/10/02 12:56:21;;;;;;;12.93;8.90;;;25.10;99.90;;;;;;5103781;28;20437;-64
2023/10/02 12:58:56;;;;;;;12.30;8.10;;;25.10;99.90;;;;;;5104124;28;20417;-63
2023/10/02 13:01:26;;;;;;;12.13;8.80;;;25.10;99.90;;;;;;5103754;28;20791;-63
2023/10/02 13:03:56;;;;;;;14.40;9.40;;;25.10;99.90;;;;;;5104625;28;20489;-63
2023/10/02 13:06:26;;;;;;;12.23;8.37;;;25.20;99.90;;;;;;5103309;28;20488;-64
2023/10/02 13:08:55;;;;;;;13.80;8.90;;;25.20;99.90;;;;;;5103996;28;20840;-63
2023/10/02 13:11:21;;;;;;;13.20;7.90;;;25.30;99.90;;;;;;5103013;28;20610;-64
2023/10/02 13:13:49;;;;;;;12.37;8.00;;;25.40;99.90;;;;;;5103870;28;20859;-63
2023/10/02 13:16:18;;;;;;;11.87;8.43;;;25.40;99.90;;;;;;5103218;28;20428;-63
2023/10/02 13:18:44;;;;;;;11.37;8.30;;;25.50;99.90;;;;;;5104184;28;20824;-63
2023/10/02 13:21:20;;;;;;;13.40;9.10;;;25.50;99.90;;;;;;5103322;28;20487;-63
2023/10/02 13:23:48;;;;;;;15.17;9.37;;;25.50;99.90;;;;;;5103742;28;20512;-63
2023/10/02 13:26:16;;;;;;;12.90;8.27;;;25.50;99.90;;;;;;5102869;28;20434;-64
2023/10/02 13:28:48;;;;;;;12.97;8.33;;;25.40;99.90;;;;;;5103596;28;20433;-63
2023/10/02 13:31:17;;;;;;;13.70;8.97;;;25.40;99.90;;;;;;5103096;28;20470;-63
2023/10/02 13:33:52;;;;;;;11.60;8.80;;;25.30;99.90;;;;;;5103714;28;20501;-64
2023/10/02 13:36:22;;;;;;;14.97;8.80;;;25.20;99.90;;;;;;5102941;28;20485;-63
2023/10/02 13:38:58;;;;;;;11.10;7.93;;;25.20;99.90;;;;;;5103530;28;20417;-63
2023/10/02 13:41:25;;;;;;;13.00;7.83;;;25.10;99.90;;;;;;5102816;28;20421;-63
2023/10/02 13:43:52;;;;;;;13.37;8.20;;;25.00;99.90;;;;;;5103844;28;20432;-63
2023/10/02 13:46:23;;;;;;;11.33;7.97;;;25.00;99.90;;;;;;5102681;28;20436;-64
2023/10/02 13:48:52;;;;;;;11.70;8.00;;;25.00;99.90;;;;;;5103725;28;20972;-64
2023/10/02 13:51:19;;;;;;;12.67;8.27;;;24.90;99.90;;;;;;5103045;28;20472;-64
2023/10/02 13:53:45;;;;;;;10.70;7.77;;;24.90;99.90;;;;;;5085454;28;20417;-63
2023/10/02 13:56:20;;;;;;;13.60;7.50;;;24.80;99.90;;;;;;5102528;28;20430;-63
2023/10/02 13:58:50;;;;;;;12.00;8.00;;;24.80;99.90;;;;;;5103908;28;20429;-63
2023/10/02 14:01:24;;;;;;;11.93;7.10;;;24.90;99.90;;;;;;5102788;28;20434;-63
2023/10/02 14:03:51;;;;;;;10.83;8.10;;;24.90;99.90;;;;;;5103569;28;21303;-64
2023/10/02 14:06:19;;;;;;;13.07;8.00;;;24.80;99.90;;;;;;5084395;28;20780;-64
2023/10/02 14:08:45;;;;;;;12.40;7.60;;;24.80;99.90;;;;;;5103598;28;20474;-63
2023/10/02 14:11:22;;;;;;;10.60;7.30;;;24.80;99.90;;;;;;5102367;28;20465;-63
2023/10/02 14:13:48;;;;;;;10.93;7.20;;;24.80;99.90;;;;;;5103176;28;20424;-64
2023/10/02 14:16:20;;;;;;;9.83;7.13;;;24.80;99.90;;;;;;5102404;28;20430;-63
2023/10/02 14:18:55;;;;;;;10.40;7.00;;;24.80;99.90;;;;;;5103547;28;20680;-64
2023/10/02 14:21:22;;;;;;;11.37;8.03;;;24.80;99.90;;;;;;5102660;28;20535;-64
2023/10/02 14:23:48;;;;;;;11.47;7.40;;;24.80;99.90;;;;;;5103179;28;20414;-63
2023/10/02 14:26:14;;;;;;;13.67;7.63;;;24.70;99.90;;;;;;5102610;28;20452;-64
2023/10/02 14:28:40;;;;;;;11.57;7.63;;;24.70;99.90;;;;;;5103184;28;20451;-64
2023/10/02 14:31:07;;;;;;;10.70;6.73;;;24.70;99.90;;;;;;5102764;28;20982;-63
2023/10/02 14:33:36;;;;;;;11.03;6.67;;;24.60;99.90;;;;;;5097935;28;20445;-64
2023/10/02 14:36:08;;;;;;;10.93;7.80;;;24.70;99.90;;;;;;5096860;28;20441;-64
2023/10/02 14:38:36;;;;;;;10.30;7.60;;;24.70;99.90;;;;;;5096606;28;20492;-65
2023/10/02 14:41:02;;;;;;;12.37;8.00;;;24.70;99.90;;;;;;5100868;28;20429;-63
2023/10/02 14:43:32;;;;;;;11.27;7.57;;;24.70;99.90;;;;;;5101990;28;20433;-64
2023/10/02 14:45:58;;;;;;;9.90;7.27;;;24.70;99.90;;;;;;5102406;28;20421;-63
2023/10/02 14:48:28;;;;;;;10.10;6.40;;;24.70;99.90;;;;;;5101997;28;20429;-64
2023/10/02 14:50:55;;;;;;;12.90;7.27;;;24.70;99.90;;;;;;5095789;28;20481;-64
2023/10/02 14:53:21;;;;;;;10.90;7.30;;;24.70;99.90;;;;;;5105579;28;20453;-64
2023/10/02 14:55:48;;;;;;;12.63;7.90;;;24.70;99.90;;;;;;5105876;28;20432;-64
2023/10/02 14:58:15;;;;;;;11.23;7.77;;;24.70;99.90;;;;;;5105698;28;20452;-64
2023/10/02 15:00:42;;;;;;;12.07;7.87;;;24.70;99.90;;;;;;5105904;28;20422;-64
2023/10/02 15:03:08;;;;;;;13.47;8.20;;;24.60;99.90;;;;;;5105704;28;20930;-64
2023/10/02 15:05:37;;;;;;;10.73;6.90;;;24.60;99.90;;;;;;5105571;28;20524;-64
2023/10/02 15:08:03;;;;;;;14.37;8.57;;;24.60;99.90;;;;;;5100870;28;20441;-64
2023/10/02 15:10:31;;;;;;;11.13;7.97;;;24.50;99.90;;;;;;5105890;28;20469;-64
2023/10/02 15:12:58;;;;;;;12.13;7.67;;;24.50;99.90;;;;;;5105909;28;21068;-64
2023/10/02 15:15:28;;;;;;;11.07;8.43;;;24.50;99.90;;;;;;5105107;28;20421;-64
2023/10/02 15:17:54;;;;;;;11.83;7.73;;;24.40;99.90;;;;;;5087640;28;21065;-64
2023/10/02 15:20:23;;;;;;;10.10;7.80;;;24.40;99.90;;;;;;5104834;28;20428;-64
2023/10/02 15:22:54;;;;;;;13.50;8.33;;;24.40;99.90;;;;;;5106099;28;21031;-64
2023/10/02 15:25:21;;;;;;;17.47;10.13;;;24.30;99.90;;;;;;5104424;28;20417;-64
2023/10/02 15:27:48;;;;;;;13.83;7.70;;;24.20;99.90;;;;;;5105984;28;20474;-65
2023/10/02 15:30:19;;;;;;;15.90;8.60;;;24.20;99.90;;;;;;5104961;28;20461;-64
2023/10/02 15:32:46;;;;;;;12.67;8.50;;;24.20;99.90;;;;;;5105688;28;20425;-65
2023/10/02 15:35:15;;;;;;;15.63;9.77;;;24.20;99.90;;;;;;5104243;28;20426;-63
2023/10/02 15:37:43;;;;;;;12.07;9.03;;;24.10;99.90;;;;;;5098628;28;20468;-62
2023/10/02 15:40:12;;;;;;;12.70;8.97;;;24.10;99.90;;;;;;5104826;28;20429;-63
2023/10/02 15:42:39;;;;;;;12.87;8.63;;;24.10;99.90;;;;;;5105420;28;20430;-63
2023/10/02 15:45:14;;;;;;;10.53;7.83;;;24.00;99.90;;;;;;5104632;28;20446;-63
2023/10/02 15:47:46;;;;;;;13.60;8.87;;;24.00;99.90;;;;;;5105377;28;20428;-64
2023/10/02 15:50:17;;;;;;;12.10;8.67;;;23.90;99.90;;;;;;5104295;28;20901;-64
2023/10/02 15:52:44;;;;;;;12.70;8.30;;;23.90;99.90;;;;;;5102046;28;20418;-64
2023/10/02 15:55:12;;;;;;;12.43;8.83;;;23.90;99.90;;;;;;5104349;28;20422;-64
2023/10/02 15:57:42;;;;;;;15.10;9.87;;;23.90;99.90;;;;;;5104983;28;20430;-64